sensor_id;sensor_type;location;lat;lon;timestamp;temperature;humidity
23703;DHT22;12030;50.376;8.762;2023-05-23T00:02:18;17.30;99.90
23703;DHT22;12030;50.376;8.762;2023-05-23T00:04:44;17.30;99.90
23703;DHT22;12030;50.376;8.762;2023-05-23T00:07:10;17.30;99.90
23703;DHT22;12030;50.376;8.762;2023-05-23T00:09:35;17.30;99.90
23703;DHT22;12030;50.376;8.762;2023-05-23T00:12:01;17.30;99.90
23703;DHT22;12030;50.376;8.762;2023-05-23T00:14:27;17.30;99.90
23703;DHT22;12030;50.376;8.762;2023-05-23T00:16:55;17.30;99.90
23703;DHT22;12030;50.376;8.762;2023-05-23T00:19:21;17.20;99.90
23703;DHT22;12030;50.376;8.762;2023-05-23T00:21:47;18.60;99.90
23703;DHT22;12030;50.376;8.762;2023-05-23T00:24:13;17.20;99.90
23703;DHT22;12030;50.376;8.762;2023-05-23T00:26:45;17.20;99.90
23703;DHT22;12030;50.376;8.762;2023-05-23T00:29:11;17.10;99.90
23703;DHT22;12030;50.376;8.762;2023-05-23T00:31:41;17.20;99.90
23703;DHT22;12030;50.376;8.762;2023-05-23T00:34:07;17.20;99.90
23703;DHT22;12030;50.376;8.762;2023-05-23T00:36:32;17.20;99.90
23703;DHT22;12030;50.376;8.762;2023-05-23T00:39:02;17.20;99.90
23703;DHT22;12030;50.376;8.762;2023-05-23T00:41:28;17.10;99.90
23703;DHT22;12030;50.376;8.762;2023-05-23T00:43:55;17.10;99.90
23703;DHT22;12030;50.376;8.762;2023-05-23T00:46:22;17.10;99.90
23703;DHT22;12030;50.376;8.762;2023-05-23T00:48:48;17.10;99.90
23703;DHT22;12030;50.376;8.762;2023-05-23T00:51:13;17.10;99.90
23703;DHT22;12030;50.376;8.762;2023-05-23T00:53:40;17.00;99.90
23703;DHT22;12030;50.376;8.762;2023-05-23T00:56:05;17.00;99.90
23703;DHT22;12030;50.376;8.762;2023-05-23T00:58:31;17.00;99.90
23703;DHT22;12030;50.376;8.762;2023-05-23T01:00:57;17.00;99.90
23703;DHT22;12030;50.376;8.762;2023-05-23T01:03:24;17.00;99.90
23703;DHT22;12030;50.376;8.762;2023-05-23T01:05:54;17.00;99.90
23703;DHT22;12030;50.376;8.762;2023-05-23T01:08:20;17.00;99.90
23703;DHT22;12030;50.376;8.762;2023-05-23T01:10:46;16.90;99.90
23703;DHT22;12030;50.376;8.762;2023-05-23T01:13:40;16.90;99.90
23703;DHT22;12030;50.376;8.762;2023-05-23T01:16:13;16.90;99.90
23703;DHT22;12030;50.376;8.762;2023-05-23T01:18:47;16.90;99.90
23703;DHT22;12030;50.376;8.762;2023-05-23T01:21:17;16.80;99.90
23703;DHT22;12030;50.376;8.762;2023-05-23T01:27:23;16.80;99.90
23703;DHT22;12030;50.376;8.762;2023-05-23T01:29:56;16.80;99.90
23703;DHT22;12030;50.376;8.762;2023-05-23T01:32:24;16.80;99.90
23703;DHT22;12030;50.376;8.762;2023-05-23T01:34:52;16.70;99.90
23703;DHT22;12030;50.376;8.762;2023-05-23T01:37:17;16.70;99.90
23703;DHT22;12030;50.376;8.762;2023-05-23T01:39:44;16.70;99.90
23703;DHT22;12030;50.376;8.762;2023-05-23T01:42:10;16.60;99.90
23703;DHT22;12030;50.376;8.762;2023-05-23T01:44:35;16.50;99.90
23703;DHT22;12030;50.376;8.762;2023-05-23T01:47:03;16.50;99.90
23703;DHT22;12030;50.376;8.762;2023-05-23T01:49:31;16.40;99.90
23703;DHT22;12030;50.376;8.762;2023-05-23T01:51:59;16.40;99.90
23703;DHT22;12030;50.376;8.762;2023-05-23T01:54:26;16.40;99.90
23703;DHT22;12030;50.376;8.762;2023-05-23T01:56:54;16.40;99.90
23703;DHT22;12030;50.376;8.762;2023-05-23T01:59:20;16.30;99.90
23703;DHT22;12030;50.376;8.762;2023-05-23T02:01:46;16.20;99.90
23703;DHT22;12030;50.376;8.762;2023-05-23T02:04:12;16.20;99.90
23703;DHT22;12030;50.376;8.762;2023-05-23T02:06:38;16.20;99.90
23703;DHT22;12030;50.376;8.762;2023-05-23T02:09:03;16.20;99.90
23703;DHT22;12030;50.376;8.762;2023-05-23T02:11:29;16.20;99.90
23703;DHT22;12030;50.376;8.762;2023-05-23T02:13:54;16.10;99.90
23703;DHT22;12030;50.376;8.762;2023-05-23T02:16:20;16.10;99.90
23703;DHT22;12030;50.376;8.762;2023-05-23T02:18:45;16.10;99.90
23703;DHT22;12030;50.376;8.762;2023-05-23T02:21:11;16.00;99.90
23703;DHT22;12030;50.376;8.762;2023-05-23T02:23:37;16.00;99.90
23703;DHT22;12030;50.376;8.762;2023-05-23T02:26:02;15.90;99.90
23703;DHT22;12030;50.376;8.762;2023-05-23T02:28:28;15.90;99.90
23703;DHT22;12030;50.376;8.762;2023-05-23T02:30:53;15.90;99.90
23703;DHT22;12030;50.376;8.762;2023-05-23T02:33:19;15.90;99.90
23703;DHT22;12030;50.376;8.762;2023-05-23T02:35:45;15.80;99.90
23703;DHT22;12030;50.376;8.762;2023-05-23T02:38:10;15.70;99.90
23703;DHT22;12030;50.376;8.762;2023-05-23T02:40:36;15.70;99.90
23703;DHT22;12030;50.376;8.762;2023-05-23T02:43:02;15.70;99.90
23703;DHT22;12030;50.376;8.762;2023-05-23T02:45:27;15.70;99.90
23703;DHT22;12030;50.376;8.762;2023-05-23T02:47:53;15.60;99.90
23703;DHT22;12030;50.376;8.762;2023-05-23T02:50:18;15.50;99.90
23703;DHT22;12030;50.376;8.762;2023-05-23T02:52:44;15.50;99.90
23703;DHT22;12030;50.376;8.762;2023-05-23T02:55:10;15.40;99.90
23703;DHT22;12030;50.376;8.762;2023-05-23T02:57:35;15.40;99.90
23703;DHT22;12030;50.376;8.762;2023-05-23T03:00:01;15.30;99.90
23703;DHT22;12030;50.376;8.762;2023-05-23T03:02:27;17.30;99.90
23703;DHT22;12030;50.376;8.762;2023-05-23T03:04:52;15.20;99.90
23703;DHT22;12030;50.376;8.762;2023-05-23T03:07:18;15.20;99.90
23703;DHT22;12030;50.376;8.762;2023-05-23T03:09:43;15.20;99.90
23703;DHT22;12030;50.376;8.762;2023-05-23T03:12:09;15.20;99.90
23703;DHT22;12030;50.376;8.762;2023-05-23T03:14:34;15.20;99.90
23703;DHT22;12030;50.376;8.762;2023-05-23T03:17:00;15.20;99.90
23703;DHT22;12030;50.376;8.762;2023-05-23T03:19:28;15.10;99.90
23703;DHT22;12030;50.376;8.762;2023-05-23T03:21:53;15.10;99.90
23703;DHT22;12030;50.376;8.762;2023-05-23T03:24:19;15.10;99.90
23703;DHT22;12030;50.376;8.762;2023-05-23T03:26:45;15.10;99.90
23703;DHT22;12030;50.376;8.762;2023-05-23T03:29:10;15.10;99.90
23703;DHT22;12030;50.376;8.762;2023-05-23T03:31:36;15.10;99.90
23703;DHT22;12030;50.376;8.762;2023-05-23T03:34:02;15.10;99.90
23703;DHT22;12030;50.376;8.762;2023-05-23T03:36:30;15.10;99.90
23703;DHT22;12030;50.376;8.762;2023-05-23T03:38:57;15.10;99.90
23703;DHT22;12030;50.376;8.762;2023-05-23T03:41:23;15.00;99.90
23703;DHT22;12030;50.376;8.762;2023-05-23T03:43:48;15.00;99.90
23703;DHT22;12030;50.376;8.762;2023-05-23T03:46:14;15.00;99.90
23703;DHT22;12030;50.376;8.762;2023-05-23T03:48:39;15.00;99.90
23703;DHT22;12030;50.376;8.762;2023-05-23T03:51:05;15.10;99.90
23703;DHT22;12030;50.376;8.762;2023-05-23T03:53:30;15.00;99.90
23703;DHT22;12030;50.376;8.762;2023-05-23T03:55:56;15.00;99.90
23703;DHT22;12030;50.376;8.762;2023-05-23T03:58:22;15.00;99.90
23703;DHT22;12030;50.376;8.762;2023-05-23T04:00:47;15.00;99.90
23703;DHT22;12030;50.376;8.762;2023-05-23T04:03:13;14.90;99.90
23703;DHT22;12030;50.376;8.762;2023-05-23T04:05:39;14.90;99.90
23703;DHT22;12030;50.376;8.762;2023-05-23T04:08:05;15.00;99.90
23703;DHT22;12030;50.376;8.762;2023-05-23T04:10:31;14.90;99.90
23703;DHT22;12030;50.376;8.762;2023-05-23T04:12:56;15.00;99.90
23703;DHT22;12030;50.376;8.762;2023-05-23T04:15:23;15.00;99.90
23703;DHT22;12030;50.376;8.762;2023-05-23T04:17:49;15.10;99.90
23703;DHT22;12030;50.376;8.762;2023-05-23T04:20:16;15.10;99.90
23703;DHT22;12030;50.376;8.762;2023-05-23T04:22:42;15.10;99.90
23703;DHT22;12030;50.376;8.762;2023-05-23T04:25:08;15.20;99.90
23703;DHT22;12030;50.376;8.762;2023-05-23T04:27:34;15.30;99.90
23703;DHT22;12030;50.376;8.762;2023-05-23T04:29:59;15.30;99.90
23703;DHT22;12030;50.376;8.762;2023-05-23T04:32:25;15.30;99.90
23703;DHT22;12030;50.376;8.762;2023-05-23T04:34:51;15.40;99.90
23703;DHT22;12030;50.376;8.762;2023-05-23T04:37:17;15.50;99.90
23703;DHT22;12030;50.376;8.762;2023-05-23T04:39:47;15.50;99.90
23703;DHT22;12030;50.376;8.762;2023-05-23T04:42:12;15.50;99.90
23703;DHT22;12030;50.376;8.762;2023-05-23T04:44:38;15.60;99.90
23703;DHT22;12030;50.376;8.762;2023-05-23T04:47:04;15.60;99.90
23703;DHT22;12030;50.376;8.762;2023-05-23T04:49:29;15.70;99.90
23703;DHT22;12030;50.376;8.762;2023-05-23T04:51:58;15.70;99.90
23703;DHT22;12030;50.376;8.762;2023-05-23T04:54:23;15.70;99.90
23703;DHT22;12030;50.376;8.762;2023-05-23T04:56:49;15.80;99.90
23703;DHT22;12030;50.376;8.762;2023-05-23T04:59:15;15.80;99.90
23703;DHT22;12030;50.376;8.762;2023-05-23T05:01:40;15.80;99.90
23703;DHT22;12030;50.376;8.762;2023-05-23T05:04:06;15.80;99.90
23703;DHT22;12030;50.376;8.762;2023-05-23T05:06:31;15.80;99.90
23703;DHT22;12030;50.376;8.762;2023-05-23T05:08:57;15.70;99.90
23703;DHT22;12030;50.376;8.762;2023-05-23T05:11:23;15.70;99.90
23703;DHT22;12030;50.376;8.762;2023-05-23T05:13:48;16.10;99.90
23703;DHT22;12030;50.376;8.762;2023-05-23T05:16:14;15.70;99.90
23703;DHT22;12030;50.376;8.762;2023-05-23T05:18:39;15.70;99.90
23703;DHT22;12030;50.376;8.762;2023-05-23T05:21:06;15.70;99.90
23703;DHT22;12030;50.376;8.762;2023-05-23T05:23:32;15.70;99.90
23703;DHT22;12030;50.376;8.762;2023-05-23T05:25:58;15.60;99.90
23703;DHT22;12030;50.376;8.762;2023-05-23T05:28:24;15.60;99.90
23703;DHT22;12030;50.376;8.762;2023-05-23T05:30:50;15.60;99.90
23703;DHT22;12030;50.376;8.762;2023-05-23T05:33:19;15.70;99.90
23703;DHT22;12030;50.376;8.762;2023-05-23T05:35:48;15.70;99.90
23703;DHT22;12030;50.376;8.762;2023-05-23T05:38:13;15.70;99.90
23703;DHT22;12030;50.376;8.762;2023-05-23T05:40:39;15.70;99.90
23703;DHT22;12030;50.376;8.762;2023-05-23T05:43:04;15.70;99.90
23703;DHT22;12030;50.376;8.762;2023-05-23T05:45:30;15.80;99.90
23703;DHT22;12030;50.376;8.762;2023-05-23T05:47:56;15.70;99.90
23703;DHT22;12030;50.376;8.762;2023-05-23T05:50:22;15.70;99.90
23703;DHT22;12030;50.376;8.762;2023-05-23T05:52:47;15.70;99.90
23703;DHT22;12030;50.376;8.762;2023-05-23T05:55:13;16.50;99.90
23703;DHT22;12030;50.376;8.762;2023-05-23T05:57:39;15.80;99.90
23703;DHT22;12030;50.376;8.762;2023-05-23T06:00:09;15.80;99.90
23703;DHT22;12030;50.376;8.762;2023-05-23T06:02:40;15.90;99.90
23703;DHT22;12030;50.376;8.762;2023-05-23T06:05:09;15.80;99.90
23703;DHT22;12030;50.376;8.762;2023-05-23T06:07:37;15.80;99.90
23703;DHT22;12030;50.376;8.762;2023-05-23T06:10:03;15.90;99.90
23703;DHT22;12030;50.376;8.762;2023-05-23T06:12:28;15.90;99.90
23703;DHT22;12030;50.376;8.762;2023-05-23T06:14:54;16.00;99.90
23703;DHT22;12030;50.376;8.762;2023-05-23T06:17:19;15.90;99.90
23703;DHT22;12030;50.376;8.762;2023-05-23T06:19:45;15.90;99.90
23703;DHT22;12030;50.376;8.762;2023-05-23T06:22:10;16.00;99.90
23703;DHT22;12030;50.376;8.762;2023-05-23T06:24:36;16.10;99.90
23703;DHT22;12030;50.376;8.762;2023-05-23T06:27:01;16.30;99.90
23703;DHT22;12030;50.376;8.762;2023-05-23T06:29:27;16.30;99.90
23703;DHT22;12030;50.376;8.762;2023-05-23T06:31:52;16.50;99.90
23703;DHT22;12030;50.376;8.762;2023-05-23T06:34:18;16.50;99.90
23703;DHT22;12030;50.376;8.762;2023-05-23T06:36:44;16.60;99.90
23703;DHT22;12030;50.376;8.762;2023-05-23T06:39:11;16.50;99.90
23703;DHT22;12030;50.376;8.762;2023-05-23T06:41:38;16.50;99.90
23703;DHT22;12030;50.376;8.762;2023-05-23T06:44:03;16.60;99.90
23703;DHT22;12030;50.376;8.762;2023-05-23T06:46:29;16.60;99.90
23703;DHT22;12030;50.376;8.762;2023-05-23T06:48:54;16.70;99.90
23703;DHT22;12030;50.376;8.762;2023-05-23T06:51:20;16.70;99.90
23703;DHT22;12030;50.376;8.762;2023-05-23T06:53:45;16.80;99.90
23703;DHT22;12030;50.376;8.762;2023-05-23T06:56:11;16.90;99.90
23703;DHT22;12030;50.376;8.762;2023-05-23T06:58:36;17.00;99.90
23703;DHT22;12030;50.376;8.762;2023-05-23T07:01:02;17.00;99.90
23703;DHT22;12030;50.376;8.762;2023-05-23T07:03:28;17.10;99.90
23703;DHT22;12030;50.376;8.762;2023-05-23T07:05:53;17.30;99.90
23703;DHT22;12030;50.376;8.762;2023-05-23T07:08:19;17.30;99.90
23703;DHT22;12030;50.376;8.762;2023-05-23T07:10:45;17.40;99.90
23703;DHT22;12030;50.376;8.762;2023-05-23T07:13:10;17.30;99.90
23703;DHT22;12030;50.376;8.762;2023-05-23T07:15:35;17.40;99.90
23703;DHT22;12030;50.376;8.762;2023-05-23T07:18:01;17.40;99.90
23703;DHT22;12030;50.376;8.762;2023-05-23T07:20:27;17.40;99.90
23703;DHT22;12030;50.376;8.762;2023-05-23T07:22:52;17.50;99.90
23703;DHT22;12030;50.376;8.762;2023-05-23T07:25:18;17.60;99.90
23703;DHT22;12030;50.376;8.762;2023-05-23T07:27:43;17.60;99.90
23703;DHT22;12030;50.376;8.762;2023-05-23T07:30:09;17.60;99.90
23703;DHT22;12030;50.376;8.762;2023-05-23T07:32:35;17.60;99.90
23703;DHT22;12030;50.376;8.762;2023-05-23T07:35:01;17.60;99.90
23703;DHT22;12030;50.376;8.762;2023-05-23T07:37:26;17.60;99.90
23703;DHT22;12030;50.376;8.762;2023-05-23T07:39:52;17.60;99.90
23703;DHT22;12030;50.376;8.762;2023-05-23T07:42:18;17.60;99.90
23703;DHT22;12030;50.376;8.762;2023-05-23T07:44:43;17.50;99.90
23703;DHT22;12030;50.376;8.762;2023-05-23T07:47:09;17.50;99.90
23703;DHT22;12030;50.376;8.762;2023-05-23T07:49:35;17.50;99.90
23703;DHT22;12030;50.376;8.762;2023-05-23T07:52:00;17.50;99.90
23703;DHT22;12030;50.376;8.762;2023-05-23T07:54:26;17.60;99.90
23703;DHT22;12030;50.376;8.762;2023-05-23T07:56:52;17.60;99.90
23703;DHT22;12030;50.376;8.762;2023-05-23T07:59:18;17.70;99.90
23703;DHT22;12030;50.376;8.762;2023-05-23T08:01:44;17.80;99.90
23703;DHT22;12030;50.376;8.762;2023-05-23T08:04:09;17.90;99.90
23703;DHT22;12030;50.376;8.762;2023-05-23T08:06:35;18.00;99.90
23703;DHT22;12030;50.376;8.762;2023-05-23T08:09:02;18.10;99.90
23703;DHT22;12030;50.376;8.762;2023-05-23T08:11:27;18.00;99.90
23703;DHT22;12030;50.376;8.762;2023-05-23T08:13:54;18.20;99.90
23703;DHT22;12030;50.376;8.762;2023-05-23T08:16:20;18.20;99.90
23703;DHT22;12030;50.376;8.762;2023-05-23T08:18:45;18.20;99.90
23703;DHT22;12030;50.376;8.762;2023-05-23T08:21:11;18.30;99.90
23703;DHT22;12030;50.376;8.762;2023-05-23T08:23:36;18.30;99.90
23703;DHT22;12030;50.376;8.762;2023-05-23T08:26:02;18.30;99.90
23703;DHT22;12030;50.376;8.762;2023-05-23T08:28:27;18.60;99.90
23703;DHT22;12030;50.376;8.762;2023-05-23T08:30:53;18.50;99.90
23703;DHT22;12030;50.376;8.762;2023-05-23T08:33:21;18.70;99.90
23703;DHT22;12030;50.376;8.762;2023-05-23T08:35:46;18.70;99.90
23703;DHT22;12030;50.376;8.762;2023-05-23T08:38:12;18.60;99.90
23703;DHT22;12030;50.376;8.762;2023-05-23T08:40:39;18.50;99.90
23703;DHT22;12030;50.376;8.762;2023-05-23T08:43:05;18.50;99.90
23703;DHT22;12030;50.376;8.762;2023-05-23T08:45:31;18.40;99.90
23703;DHT22;12030;50.376;8.762;2023-05-23T08:48:00;18.40;99.90
23703;DHT22;12030;50.376;8.762;2023-05-23T08:50:27;18.40;99.90
23703;DHT22;12030;50.376;8.762;2023-05-23T08:52:58;18.50;99.90
23703;DHT22;12030;50.376;8.762;2023-05-23T08:55:27;18.60;99.90
23703;DHT22;12030;50.376;8.762;2023-05-23T08:57:57;18.60;99.90
23703;DHT22;12030;50.376;8.762;2023-05-23T09:00:28;18.40;99.90
23703;DHT22;12030;50.376;8.762;2023-05-23T09:02:54;18.40;99.90
23703;DHT22;12030;50.376;8.762;2023-05-23T09:05:20;18.30;99.90
23703;DHT22;12030;50.376;8.762;2023-05-23T09:07:47;18.30;99.90
23703;DHT22;12030;50.376;8.762;2023-05-23T09:10:14;18.30;99.90
23703;DHT22;12030;50.376;8.762;2023-05-23T09:12:41;18.40;99.90
23703;DHT22;12030;50.376;8.762;2023-05-23T09:15:08;18.60;99.90
23703;DHT22;12030;50.376;8.762;2023-05-23T09:17:35;18.80;99.90
23703;DHT22;12030;50.376;8.762;2023-05-23T09:20:01;19.00;99.90
23703;DHT22;12030;50.376;8.762;2023-05-23T09:22:29;19.10;99.90
23703;DHT22;12030;50.376;8.762;2023-05-23T09:24:55;19.20;99.90
23703;DHT22;12030;50.376;8.762;2023-05-23T09:27:21;19.00;99.90
23703;DHT22;12030;50.376;8.762;2023-05-23T09:29:48;18.90;99.90
23703;DHT22;12030;50.376;8.762;2023-05-23T09:32:17;18.70;99.90
23703;DHT22;12030;50.376;8.762;2023-05-23T09:34:58;18.60;99.90
23703;DHT22;12030;50.376;8.762;2023-05-23T09:37:38;18.60;99.90
23703;DHT22;12030;50.376;8.762;2023-05-23T09:40:09;18.50;99.90
23703;DHT22;12030;50.376;8.762;2023-05-23T09:42:41;18.30;99.90
23703;DHT22;12030;50.376;8.762;2023-05-23T09:45:07;18.20;99.90
23703;DHT22;12030;50.376;8.762;2023-05-23T09:47:32;18.10;99.90
23703;DHT22;12030;50.376;8.762;2023-05-23T09:49:58;18.10;99.90
23703;DHT22;12030;50.376;8.762;2023-05-23T09:52:23;17.80;99.90
23703;DHT22;12030;50.376;8.762;2023-05-23T09:54:49;17.80;99.90
23703;DHT22;12030;50.376;8.762;2023-05-23T09:57:15;18.00;99.90
23703;DHT22;12030;50.376;8.762;2023-05-23T09:59:48;18.30;99.90
23703;DHT22;12030;50.376;8.762;2023-05-23T10:02:16;18.50;99.90
23703;DHT22;12030;50.376;8.762;2023-05-23T10:04:46;18.70;99.90
23703;DHT22;12030;50.376;8.762;2023-05-23T10:07:13;18.90;99.90
23703;DHT22;12030;50.376;8.762;2023-05-23T10:09:46;19.00;99.90
23703;DHT22;12030;50.376;8.762;2023-05-23T10:12:43;19.20;99.90
23703;DHT22;12030;50.376;8.762;2023-05-23T10:15:13;19.20;99.90
23703;DHT22;12030;50.376;8.762;2023-05-23T10:17:56;19.40;99.90
23703;DHT22;12030;50.376;8.762;2023-05-23T10:20:25;19.20;99.90
23703;DHT22;12030;50.376;8.762;2023-05-23T10:22:54;19.30;99.90
23703;DHT22;12030;50.376;8.762;2023-05-23T10:25:20;19.20;99.90
23703;DHT22;12030;50.376;8.762;2023-05-23T10:27:47;19.20;99.90
23703;DHT22;12030;50.376;8.762;2023-05-23T10:30:14;19.30;99.90
23703;DHT22;12030;50.376;8.762;2023-05-23T10:32:40;19.40;99.90
23703;DHT22;12030;50.376;8.762;2023-05-23T10:35:09;19.40;99.90
23703;DHT22;12030;50.376;8.762;2023-05-23T10:37:45;19.40;99.90
23703;DHT22;12030;50.376;8.762;2023-05-23T10:40:38;19.10;99.90
23703;DHT22;12030;50.376;8.762;2023-05-23T10:43:33;18.80;99.90
23703;DHT22;12030;50.376;8.762;2023-05-23T10:46:01;18.60;99.90
23703;DHT22;12030;50.376;8.762;2023-05-23T10:48:41;18.40;99.90
23703;DHT22;12030;50.376;8.762;2023-05-23T10:51:11;18.30;99.90
23703;DHT22;12030;50.376;8.762;2023-05-23T10:53:43;18.20;99.90
23703;DHT22;12030;50.376;8.762;2023-05-23T10:56:10;18.30;99.90
23703;DHT22;12030;50.376;8.762;2023-05-23T10:58:43;18.50;99.90
23703;DHT22;12030;50.376;8.762;2023-05-23T11:01:12;18.80;99.90
23703;DHT22;12030;50.376;8.762;2023-05-23T11:06:40;19.00;99.90
23703;DHT22;12030;50.376;8.762;2023-05-23T11:09:17;19.20;99.90
23703;DHT22;12030;50.376;8.762;2023-05-23T11:14:32;19.10;99.90
23703;DHT22;12030;50.376;8.762;2023-05-23T11:17:00;19.00;99.90
23703;DHT22;12030;50.376;8.762;2023-05-23T11:19:26;19.00;99.90
23703;DHT22;12030;50.376;8.762;2023-05-23T11:22:00;18.80;99.90
23703;DHT22;12030;50.376;8.762;2023-05-23T11:24:48;19.00;99.90
23703;DHT22;12030;50.376;8.762;2023-05-23T11:27:25;19.20;99.90
23703;DHT22;12030;50.376;8.762;2023-05-23T11:29:58;19.10;99.90
23703;DHT22;12030;50.376;8.762;2023-05-23T11:32:27;19.40;99.90
23703;DHT22;12030;50.376;8.762;2023-05-23T11:34:53;19.30;99.90
23703;DHT22;12030;50.376;8.762;2023-05-23T11:37:19;19.30;99.90
23703;DHT22;12030;50.376;8.762;2023-05-23T11:39:45;19.10;99.90
23703;DHT22;12030;50.376;8.762;2023-05-23T11:42:11;19.00;99.90
23703;DHT22;12030;50.376;8.762;2023-05-23T11:44:36;19.20;99.90
23703;DHT22;12030;50.376;8.762;2023-05-23T11:47:04;19.20;99.90
23703;DHT22;12030;50.376;8.762;2023-05-23T11:49:33;19.10;99.90
23703;DHT22;12030;50.376;8.762;2023-05-23T11:52:00;19.00;99.90
23703;DHT22;12030;50.376;8.762;2023-05-23T11:54:26;19.00;99.90
23703;DHT22;12030;50.376;8.762;2023-05-23T11:56:52;19.00;99.90
23703;DHT22;12030;50.376;8.762;2023-05-23T11:59:18;19.10;99.90
23703;DHT22;12030;50.376;8.762;2023-05-23T12:01:45;19.30;99.90
23703;DHT22;12030;50.376;8.762;2023-05-23T12:04:11;19.90;99.90
23703;DHT22;12030;50.376;8.762;2023-05-23T12:06:40;20.20;99.90
23703;DHT22;12030;50.376;8.762;2023-05-23T12:09:06;20.70;99.90
23703;DHT22;12030;50.376;8.762;2023-05-23T12:11:33;20.30;99.90
23703;DHT22;12030;50.376;8.762;2023-05-23T12:13:59;20.00;99.90
23703;DHT22;12030;50.376;8.762;2023-05-23T12:16:30;19.80;99.90
23703;DHT22;12030;50.376;8.762;2023-05-23T12:18:56;19.70;99.90
23703;DHT22;12030;50.376;8.762;2023-05-23T12:21:25;19.50;99.90
23703;DHT22;12030;50.376;8.762;2023-05-23T12:23:50;19.40;99.90
23703;DHT22;12030;50.376;8.762;2023-05-23T12:26:16;19.40;99.90
23703;DHT22;12030;50.376;8.762;2023-05-23T12:28:43;19.50;99.90
23703;DHT22;12030;50.376;8.762;2023-05-23T12:31:16;19.70;99.90
23703;DHT22;12030;50.376;8.762;2023-05-23T12:33:43;19.60;99.90
23703;DHT22;12030;50.376;8.762;2023-05-23T12:36:10;19.40;99.90
23703;DHT22;12030;50.376;8.762;2023-05-23T12:38:36;19.30;99.90
23703;DHT22;12030;50.376;8.762;2023-05-23T12:41:18;19.40;99.90
23703;DHT22;12030;50.376;8.762;2023-05-23T12:43:54;19.30;99.90
23703;DHT22;12030;50.376;8.762;2023-05-23T12:46:21;19.20;99.90
23703;DHT22;12030;50.376;8.762;2023-05-23T12:48:47;19.30;99.90
23703;DHT22;12030;50.376;8.762;2023-05-23T12:51:13;19.40;99.90
23703;DHT22;12030;50.376;8.762;2023-05-23T12:53:39;19.60;99.90
23703;DHT22;12030;50.376;8.762;2023-05-23T12:56:05;19.80;99.90
23703;DHT22;12030;50.376;8.762;2023-05-23T12:58:31;19.60;99.90
23703;DHT22;12030;50.376;8.762;2023-05-23T13:00:58;19.50;99.90
23703;DHT22;12030;50.376;8.762;2023-05-23T13:03:24;19.30;99.90
23703;DHT22;12030;50.376;8.762;2023-05-23T13:05:49;19.20;99.90
23703;DHT22;12030;50.376;8.762;2023-05-23T13:08:15;19.20;99.90
23703;DHT22;12030;50.376;8.762;2023-05-23T13:10:42;19.20;99.90
23703;DHT22;12030;50.376;8.762;2023-05-23T13:13:07;19.10;99.90
23703;DHT22;12030;50.376;8.762;2023-05-23T13:15:33;19.20;99.90
23703;DHT22;12030;50.376;8.762;2023-05-23T13:17:58;19.30;99.90
23703;DHT22;12030;50.376;8.762;2023-05-23T13:20:24;19.30;99.90
23703;DHT22;12030;50.376;8.762;2023-05-23T13:22:57;19.10;99.90
23703;DHT22;12030;50.376;8.762;2023-05-23T13:25:23;18.90;99.90
23703;DHT22;12030;50.376;8.762;2023-05-23T13:27:49;18.70;99.90
23703;DHT22;12030;50.376;8.762;2023-05-23T13:30:15;18.70;99.90
23703;DHT22;12030;50.376;8.762;2023-05-23T13:32:41;18.60;99.90
23703;DHT22;12030;50.376;8.762;2023-05-23T13:35:07;18.60;99.90
23703;DHT22;12030;50.376;8.762;2023-05-23T13:37:32;18.60;99.90
23703;DHT22;12030;50.376;8.762;2023-05-23T13:40:02;18.50;99.90
23703;DHT22;12030;50.376;8.762;2023-05-23T13:42:28;18.60;99.90
23703;DHT22;12030;50.376;8.762;2023-05-23T13:44:53;18.60;99.90
23703;DHT22;12030;50.376;8.762;2023-05-23T13:47:19;18.60;99.90
23703;DHT22;12030;50.376;8.762;2023-05-23T13:49:44;18.70;99.90
23703;DHT22;12030;50.376;8.762;2023-05-23T13:52:11;18.50;99.90
23703;DHT22;12030;50.376;8.762;2023-05-23T13:54:36;18.40;99.90
23703;DHT22;12030;50.376;8.762;2023-05-23T13:57:03;18.30;99.90
23703;DHT22;12030;50.376;8.762;2023-05-23T13:59:28;18.40;99.90
23703;DHT22;12030;50.376;8.762;2023-05-23T14:01:54;18.20;99.90
23703;DHT22;12030;50.376;8.762;2023-05-23T14:04:21;17.80;99.90
23703;DHT22;12030;50.376;8.762;2023-05-23T14:06:47;17.70;99.90
23703;DHT22;12030;50.376;8.762;2023-05-23T14:09:13;17.70;99.90
23703;DHT22;12030;50.376;8.762;2023-05-23T14:11:39;17.60;99.90
23703;DHT22;12030;50.376;8.762;2023-05-23T14:14:04;17.70;99.90
23703;DHT22;12030;50.376;8.762;2023-05-23T14:16:31;17.70;99.90
23703;DHT22;12030;50.376;8.762;2023-05-23T14:18:56;17.70;99.90
23703;DHT22;12030;50.376;8.762;2023-05-23T14:21:22;17.80;99.90
23703;DHT22;12030;50.376;8.762;2023-05-23T14:23:48;17.70;99.90
23703;DHT22;12030;50.376;8.762;2023-05-23T14:26:13;17.80;99.90
23703;DHT22;12030;50.376;8.762;2023-05-23T14:28:39;17.80;99.90
23703;DHT22;12030;50.376;8.762;2023-05-23T14:31:05;17.60;99.90
23703;DHT22;12030;50.376;8.762;2023-05-23T14:33:30;17.50;99.90
23703;DHT22;12030;50.376;8.762;2023-05-23T14:35:56;17.50;99.90
23703;DHT22;12030;50.376;8.762;2023-05-23T14:38:21;17.50;99.90
23703;DHT22;12030;50.376;8.762;2023-05-23T14:40:47;17.50;99.90
23703;DHT22;12030;50.376;8.762;2023-05-23T14:43:13;17.40;99.90
23703;DHT22;12030;50.376;8.762;2023-05-23T14:45:39;17.50;99.90
23703;DHT22;12030;50.376;8.762;2023-05-23T14:48:05;17.60;99.90
23703;DHT22;12030;50.376;8.762;2023-05-23T14:50:31;17.60;99.90
23703;DHT22;12030;50.376;8.762;2023-05-23T14:52:56;17.60;99.90
23703;DHT22;12030;50.376;8.762;2023-05-23T14:55:22;17.50;99.90
23703;DHT22;12030;50.376;8.762;2023-05-23T14:57:48;17.50;99.90
23703;DHT22;12030;50.376;8.762;2023-05-23T15:00:13;17.60;99.90
23703;DHT22;12030;50.376;8.762;2023-05-23T15:02:39;17.60;99.90
23703;DHT22;12030;50.376;8.762;2023-05-23T15:05:05;17.90;99.90
23703;DHT22;12030;50.376;8.762;2023-05-23T15:07:31;18.00;99.90
23703;DHT22;12030;50.376;8.762;2023-05-23T15:09:57;18.10;99.90
23703;DHT22;12030;50.376;8.762;2023-05-23T15:12:22;18.10;99.90
23703;DHT22;12030;50.376;8.762;2023-05-23T15:14:48;18.40;99.90
23703;DHT22;12030;50.376;8.762;2023-05-23T15:17:13;18.70;99.90
23703;DHT22;12030;50.376;8.762;2023-05-23T15:19:45;18.90;99.90
23703;DHT22;12030;50.376;8.762;2023-05-23T15:22:11;18.90;99.90
23703;DHT22;12030;50.376;8.762;2023-05-23T15:24:37;18.90;99.90
23703;DHT22;12030;50.376;8.762;2023-05-23T15:27:02;19.50;99.90
23703;DHT22;12030;50.376;8.762;2023-05-23T15:29:28;18.80;99.90
23703;DHT22;12030;50.376;8.762;2023-05-23T15:31:53;19.40;99.90
23703;DHT22;12030;50.376;8.762;2023-05-23T15:34:19;19.70;99.90
23703;DHT22;12030;50.376;8.762;2023-05-23T15:36:45;19.60;99.90
23703;DHT22;12030;50.376;8.762;2023-05-23T15:39:11;19.60;99.90